Time;durP1;ratioP1;P1;durP2;ratioP2;P2;SDS_P1;SDS_P2;PMS_P1;PMS_P2;Temp;Humidity;BMP_temperature;BMP_pressure;BME280_temperature;BME280_humidity;BME280_pressure;Samples;Min_cycle;Max_cycle;Signal;HPM_P1;HPM_P2
2023/10/15 00:04:18;;;;;;;5.47;4.67;;;7.50;99.90;;;8.22;100.00;98195.81;10355140;28;20226;-65
2023/10/15 00:09:23;;;;;;;5.23;4.83;;;7.50;99.90;;;8.19;100.00;98193.06;10357634;28;20305;-64
2023/10/15 00:14:26;;;;;;;5.77;5.00;;;7.40;99.90;;;8.03;100.00;98201.25;10359662;28;20229;-65
2023/10/15 00:19:33;;;;;;;4.77;4.33;;;7.30;99.90;;;7.95;100.00;98197.25;10355908;28;20238;-65
2023/10/15 00:24:38;;;;;;;4.80;4.50;;;7.20;99.90;;;7.79;100.00;98194.41;10354101;28;20233;-64
2023/10/15 00:29:41;;;;;;;4.77;4.10;;;7.10;99.90;;;7.74;100.00;98194.03;10357558;28;20606;-64
2023/10/15 00:34:49;;;;;;;5.90;5.30;;;7.00;99.90;;;7.79;100.00;98191.84;10357402;28;20227;-64
2023/10/15 00:39:55;;;;;;;7.57;6.13;;;7.10;99.90;;;7.86;100.00;98194.94;10355717;28;20229;-64
2023/10/15 00:44:58;;;;;;;7.47;6.23;;;7.20;99.90;;;7.92;100.00;98193.63;10356637;28;20230;-64
2023/10/15 00:50:07;;;;;;;25.03;6.60;;;7.30;99.90;;;7.87;100.00;98190.75;10358324;28;20238;-63
2023/10/15 00:55:19;;;;;;;20.77;6.30;;;7.20;99.90;;;7.71;100.00;98182.78;10304225;28;20699;-64
2023/10/15 01:00:47;;;;;;;9.10;4.90;;;7.00;99.90;;;7.58;100.00;98181.88;10346823;28;20238;-64
2023/10/15 01:05:53;;;;;;;4.93;4.50;;;6.90;99.90;;;7.53;100.00;98172.13;10357334;28;20223;-64
2023/10/15 01:11:11;;;;;;;4.90;4.27;;;6.80;99.90;;;7.39;100.00;98168.56;10355382;28;20246;-64
2023/10/15 01:16:18;;;;;;;4.73;4.33;;;6.60;99.90;;;7.45;100.00;98169.91;10355800;28;20245;-64
2023/10/15 01:21:21;;;;;;;5.73;5.13;;;6.80;99.90;;;7.53;100.00;98173.00;10356825;28;20222;-64
2023/10/15 01:26:26;;;;;;;5.23;4.73;;;6.90;99.90;;;7.56;100.00;98172.34;10353961;28;20253;-64
2023/10/15 01:31:29;;;;;;;6.20;4.87;;;6.90;99.90;;;7.67;100.00;98162.19;10353167;28;20867;-64
2023/10/15 01:36:33;;;;;;;5.30;4.80;;;6.90;99.90;;;7.67;100.00;98159.66;10353743;28;20739;-64
2023/10/15 01:41:39;;;;;;;5.33;4.63;;;6.90;99.90;;;7.58;100.00;98156.44;10353800;28;20586;-63
2023/10/15 01:46:48;;;;;;;4.80;4.30;;;6.90;99.90;;;7.64;100.00;98161.06;10353028;28;20226;-64
2023/10/15 01:51:53;;;;;;;5.17;4.77;;;6.90;99.90;;;7.66;100.00;98160.41;10352909;28;20223;-64
2023/10/15 01:56:58;;;;;;;7.13;4.70;;;7.00;99.90;;;7.79;100.00;98164.75;10354452;28;20722;-64
2023/10/15 02:02:01;;;;;;;5.20;4.70;;;7.10;99.90;;;7.83;100.00;98161.63;10350769;28;20237;-64
2023/10/15 02:07:05;;;;;;;4.40;4.00;;;7.10;99.90;;;7.83;100.00;98164.19;10351712;28;20233;-64
2023/10/15 02:12:09;;;;;;;5.80;4.23;;;7.00;99.90;;;7.65;100.00;98163.72;10306494;28;20231;-65
2023/10/15 02:17:14;;;;;;;4.70;3.93;;;6.90;99.90;;;7.71;100.00;98157.31;10329939;28;20726;-64
2023/10/15 02:22:17;;;;;;;5.03;3.80;;;7.00;99.90;;;7.72;100.00;98156.53;10350798;28;20608;-64
2023/10/15 02:27:23;;;;;;;5.43;4.23;;;7.10;99.90;;;7.75;100.00;98159.31;10351842;28;20222;-64
2023/10/15 02:32:31;;;;;;;4.80;4.27;;;7.10;99.90;;;7.90;100.00;98157.88;10354608;28;21199;-64
2023/10/15 02:37:39;;;;;;;4.30;4.00;;;7.20;99.90;;;7.93;100.00;98155.56;10354561;28;20322;-64
2023/10/15 02:42:53;;;;;;;4.57;4.13;;;7.20;99.90;;;7.73;100.00;98165.97;10350721;28;20246;-64
2023/10/15 02:47:56;;;;;;;4.40;4.10;;;7.00;99.90;;;7.82;100.00;98164.09;10352269;28;20981;-64
2023/10/15 02:53:04;;;;;;;5.30;4.70;;;7.10;99.90;;;7.86;100.00;98150.78;10350651;28;20230;-64
2023/10/15 02:58:13;;;;;;;4.40;4.00;;;7.10;99.90;;;8.05;100.00;98156.44;10354076;28;20234;-65
2023/10/15 03:03:22;;;;;;;4.50;4.07;;;7.30;99.90;;;7.93;100.00;98149.59;10351036;28;20230;-64
2023/10/15 03:08:31;;;;;;;4.67;4.27;;;7.20;99.90;;;7.84;100.00;98147.25;10351874;28;20237;-64
2023/10/15 03:13:44;;;;;;;3.90;3.60;;;7.20;99.90;;;7.88;100.00;98128.91;10352851;28;20238;-64
2023/10/15 03:18:52;;;;;;;4.30;4.00;;;7.20;99.90;;;7.80;100.00;98124.91;10359441;28;20734;-64
2023/10/15 03:23:56;;;;;;;4.13;3.83;;;7.10;99.90;;;7.84;100.00;98124.34;10358404;28;20303;-64
2023/10/15 03:29:08;;;;;;;4.30;4.00;;;7.10;99.90;;;7.71;100.00;98131.88;10357514;28;20249;-64
2023/10/15 03:34:16;;;;;;;3.80;3.50;;;7.10;99.90;;;7.84;100.00;98135.44;10358657;28;20222;-63
2023/10/15 03:39:25;;;;;;;4.27;3.87;;;7.20;99.90;;;8.03;100.00;98136.72;10357201;28;20613;-64
2023/10/15 03:44:33;;;;;;;4.43;4.03;;;7.40;99.90;;;8.01;100.00;98134.09;10359085;28;20732;-64
2023/10/15 03:49:36;;;;;;;4.00;3.60;;;7.40;99.90;;;8.13;100.00;98142.59;10359742;28;20223;-64
2023/10/15 03:54:40;;;;;;;4.13;3.77;;;7.50;99.90;;;8.26;100.00;98138.34;10358551;28;20230;-64
2023/10/15 03:59:51;;;;;;;4.57;3.40;;;7.60;99.90;;;8.34;100.00;98150.84;10357594;28;20345;-64
2023/10/15 04:05:07;;;;;;;3.63;3.33;;;7.60;99.90;;;8.33;100.00;98138.03;10355080;28;20226;-64
2023/10/15 04:10:12;;;;;;;3.97;3.67;;;7.60;99.90;;;8.24;100.00;98145.00;10355066;28;20232;-64
2023/10/15 04:15:17;;;;;;;3.70;3.40;;;7.60;99.90;;;8.30;100.00;98137.81;10357024;28;20513;-64
2023/10/15 04:20:26;;;;;;;4.07;3.67;;;7.60;99.90;;;8.27;100.00;98140.13;10355552;28;20784;-64
2023/10/15 04:25:32;;;;;;;4.00;3.60;;;7.60;99.90;;;8.30;100.00;98127.63;10355623;28;20230;-64
2023/10/15 04:30:39;;;;;;;4.10;3.70;;;7.70;99.90;;;8.23;100.00;98125.41;10354083;28;20246;-63
2023/10/15 04:35:43;;;;;;;4.37;4.07;;;7.60;99.90;;;8.30;100.00;98128.50;10354334;28;20241;-64
2023/10/15 04:41:00;;;;;;;3.60;3.30;;;7.60;99.90;;;8.31;100.00;98124.28;10350070;28;20233;-64
2023/10/15 04:46:07;;;;;;;4.50;4.10;;;7.70;99.90;;;8.37;100.00;98128.94;10351312;28;20233;-64
2023/10/15 04:51:13;;;;;;;6.43;3.87;;;7.70;99.90;;;8.53;100.00;98127.59;10354248;28;20349;-64
2023/10/15 04:56:16;;;;;;;3.80;3.40;;;7.80;99.90;;;8.52;100.00;98123.25;10347139;28;20340;-64
2023/10/15 05:01:23;;;;;;;4.17;3.60;;;7.80;99.90;;;8.56;100.00;98126.91;10339088;28;20234;-63
2023/10/15 05:06:27;;;;;;;4.80;3.87;;;7.90;99.90;;;8.51;100.00;98120.63;10335281;28;20231;-64
2023/10/15 05:11:31;;;;;;;3.93;3.63;;;7.80;99.90;;;8.54;100.00;98128.47;10339109;28;20245;-64
2023/10/15 05:16:35;;;;;;;4.10;3.73;;;7.80;99.90;;;8.62;100.00;98126.47;10333604;28;20227;-64
2023/10/15 05:21:38;;;;;;;4.17;3.63;;;7.90;99.90;;;8.51;100.00;98123.16;10337361;28;20245;-64
2023/10/15 05:26:44;;;;;;;3.77;3.40;;;7.90;99.90;;;8.53;100.00;98130.13;10338044;28;20273;-63
2023/10/15 05:31:48;;;;;;;3.63;3.33;;;7.90;99.90;;;8.48;100.00;98125.50;10336022;28;20243;-64
2023/10/15 05:36:51;;;;;;;5.47;3.63;;;7.80;99.90;;;8.33;100.00;98127.84;10337594;28;20219;-64
2023/10/15 05:41:54;;;;;;;3.90;3.60;;;7.70;99.90;;;8.41;100.00;98147.09;10345342;28;20233;-64
2023/10/15 05:46:59;;;;;;;4.27;3.87;;;7.80;99.90;;;8.66;100.00;98151.34;10342622;28;20829;-64
2023/10/15 05:52:02;;;;;;;4.33;4.03;;;8.00;99.90;;;8.67;100.00;98145.47;10344035;28;20854;-63
2023/10/15 05:57:06;;;;;;;5.17;4.00;;;7.90;99.90;;;8.43;100.00;98145.53;10342728;28;20230;-64
2023/10/15 06:02:11;;;;;;;4.23;3.93;;;7.80;99.90;;;8.32;100.00;98154.94;10344683;28;20244;-64
2023/10/15 06:07:15;;;;;;;4.00;3.60;;;7.80;99.90;;;8.39;100.00;98165.63;10347101;28;20233;-64
2023/10/15 06:12:18;;;;;;;5.00;4.43;;;7.90;99.90;;;8.31;100.00;98175.22;10345907;28;20871;-64
2023/10/15 06:17:22;;;;;;;4.33;4.07;;;7.80;99.90;;;8.40;100.00;98182.66;10347461;28;20222;-64
2023/10/15 06:22:26;;;;;;;6.93;4.80;;;7.90;99.90;;;8.45;100.00;98200.03;10352709;28;20230;-64
2023/10/15 06:27:29;;;;;;;4.87;4.57;;;8.00;99.90;;;8.60;100.00;98201.91;10355045;28;20226;-65
2023/10/15 06:32:34;;;;;;;5.40;4.97;;;8.20;99.90;;;8.77;100.00;98201.41;10352774;28;20237;-66
2023/10/15 06:37:38;;;;;;;5.83;4.93;;;8.30;99.90;;;8.78;100.00;98205.72;10352614;28;20594;-66
2023/10/15 06:42:42;;;;;;;5.67;4.40;;;8.20;99.90;;;8.67;100.00;98207.53;10351501;28;20309;-66
2023/10/15 06:47:49;;;;;;;4.37;3.97;;;8.20;99.90;;;8.74;100.00;98213.94;10356160;28;20732;-66
2023/10/15 06:52:52;;;;;;;5.07;4.37;;;8.20;99.90;;;8.78;100.00;98211.72;10361333;28;20740;-65
2023/10/15 06:57:56;;;;;;;4.70;3.63;;;8.20;99.90;;;8.85;100.00;98218.13;10361205;28;20258;-66
2023/10/15 07:03:00;;;;;;;6.47;4.07;;;8.30;99.90;;;8.76;100.00;98220.91;10357466;28;20235;-65
2023/10/15 07:08:05;;;;;;;5.50;4.60;;;8.20;99.90;;;8.79;100.00;98222.78;10355414;28;20222;-66
2023/10/15 07:13:08;;;;;;;5.50;5.00;;;8.30;99.90;;;8.93;100.00;98222.09;10355712;28;20238;-64
2023/10/15 07:18:13;;;;;;;5.03;4.53;;;8.40;99.90;;;9.03;100.00;98221.03;10360277;28;20222;-65
2023/10/15 07:23:16;;;;;;;6.93;4.97;;;8.50;99.90;;;9.15;100.00;98223.53;10356877;28;20244;-63
2023/10/15 07:28:21;;;;;;;4.47;4.07;;;8.60;99.90;;;9.29;100.00;98217.72;10358041;28;20622;-65
2023/10/15 07:33:26;;;;;;;4.80;4.33;;;8.80;99.90;;;9.33;100.00;98224.81;10355178;28;20238;-65
2023/10/15 07:38:31;;;;;;;6.20;4.10;;;8.70;99.90;;;9.53;100.00;98232.91;10351587;28;20325;-64
2023/10/15 07:43:34;;;;;;;5.17;4.03;;;9.00;99.90;;;9.70;100.00;98232.38;10351988;28;20238;-65
2023/10/15 07:48:38;;;;;;;8.30;4.83;;;9.10;99.90;;;9.73;100.00;98237.69;10353149;28;20594;-65
2023/10/15 07:53:41;;;;;;;5.88;4.50;;;9.10;99.90;;;9.88;100.00;98233.56;10358694;28;20230;-65
2023/10/15 07:58:44;;;;;;;7.40;5.63;;;9.20;99.90;;;10.24;100.00;98244.41;10354874;28;20624;-66
2023/10/15 08:03:49;;;;;;;7.03;5.47;;;9.60;99.90;;;10.62;100.00;98243.47;10351262;28;20465;-66
2023/10/15 08:08:52;;;;;;;5.70;4.32;;;10.00;99.90;;;10.66;100.00;98229.19;10350861;28;20694;-67
2023/10/15 08:13:55;;;;;;;7.05;4.50;;;9.90;99.90;;;10.90;100.00;98224.69;10354599;28;20603;-67
2023/10/15 08:19:00;;;;;;;7.53;4.43;;;10.10;99.90;;;10.86;100.00;98228.75;10353527;28;20711;-64
2023/10/15 08:24:04;;;;;;;5.75;4.18;;;10.10;99.90;;;10.74;100.00;98222.88;10350514;28;20237;-66
2023/10/15 08:29:09;;;;;;;6.70;4.20;;;10.00;99.90;;;10.65;100.00;98237.66;10351089;28;20233;-66
2023/10/15 08:34:14;;;;;;;7.72;4.38;;;10.00;99.90;;;10.65;100.00;98238.53;10342471;28;20296;-67
2023/10/15 08:39:17;;;;;;;8.13;6.55;;;9.90;99.90;;;10.75;100.00;98233.19;10348668;28;20234;-65
2023/10/15 08:44:20;;;;;;;7.75;5.43;;;10.00;99.90;;;10.55;100.00;98238.72;10349680;28;20230;-64
2023/10/15 08:49:25;;;;;;;7.47;5.22;;;9.90;99.90;;;10.35;100.00;98240.91;10352827;28;20233;-63
2023/10/15 08:54:29;;;;;;;7.80;5.35;;;9.70;99.90;;;10.51;100.00;98240.22;10349250;28;20234;-64
2023/10/15 08:59:33;;;;;;;5.70;5.13;;;9.90;99.90;;;10.62;100.00;98240.91;10346583;28;20793;-67
2023/10/15 09:04:37;;;;;;;7.22;5.78;;;10.00;99.90;;;10.93;100.00;98230.00;10342528;28;20226;-64
2023/10/15 09:09:42;;;;;;;6.45;4.78;;;10.20;99.90;;;11.22;100.00;98234.34;10343054;28;20402;-65
2023/10/15 09:14:47;;;;;;;10.30;4.97;;;10.40;99.90;;;11.12;100.00;98237.13;10349319;28;20590;-67
2023/10/15 09:19:52;;;;;;;7.70;4.57;;;10.40;99.90;;;11.23;100.00;98234.44;10349043;28;20624;-66
2023/10/15 09:24:55;;;;;;;6.70;4.32;;;10.50;99.90;;;11.16;100.00;98244.19;10348377;28;20234;-66
2023/10/15 09:30:18;;;;;;;5.68;4.03;;;10.40;99.90;;;10.99;100.00;98251.75;10348649;28;20706;-64
2023/10/15 09:35:25;;;;;;;5.97;3.72;;;10.30;99.90;;;10.83;100.00;98249.91;10347836;28;20226;-64
2023/10/15 09:40:31;;;;;;;7.45;4.20;;;10.20;99.90;;;11.26;100.00;98239.72;10356454;28;20226;-66
2023/10/15 09:45:36;;;;;;;6.10;3.70;;;10.50;99.90;;;11.44;100.00;98250.19;10352788;28;20329;-66
2023/10/15 09:50:42;;;;;;;3.78;3.38;;;10.80;99.90;;;11.68;100.00;98258.44;10354603;28;20226;-66
2023/10/15 09:55:46;;;;;;;6.88;2.92;;;11.10;99.90;;;12.39;98.13;98247.19;10353761;28;20221;-64
2023/10/15 10:01:06;;;;;;;4.00;2.67;;;11.90;99.90;;;12.23;92.78;98257.34;10349697;28;20285;-65
2023/10/15 10:06:24;;;;;;;5.13;2.58;;;11.70;99.90;;;11.89;86.54;98260.53;10350805;28;20643;-64
2023/10/15 10:11:47;;;;;;;3.35;2.22;;;11.40;99.90;;;11.84;89.56;98257.66;10352512;28;20745;-65
2023/10/15 10:16:51;;;;;;;4.50;1.90;;;11.30;99.90;;;11.64;87.09;98258.16;10351021;28;20238;-65
2023/10/15 10:21:56;;;;;;;2.70;1.90;;;11.10;99.90;;;11.74;88.62;98232.31;10350537;28;20253;-62
2023/10/15 10:27:07;;;;;;;4.07;2.13;;;11.30;99.90;;;12.00;84.72;98239.00;10361824;28;20457;-65
2023/10/15 10:32:13;;;;;;;6.25;2.05;;;11.40;99.90;;;11.98;83.78;98242.25;10363844;28;20237;-64
2023/10/15 10:37:24;;;;;;;4.38;1.98;;;11.50;99.90;;;12.11;82.86;98239.59;10361795;28;20214;-61
2023/10/15 10:42:28;;;;;;;3.30;2.33;;;11.50;99.90;;;12.47;84.97;98225.41;10361692;28;20230;-65
2023/10/15 10:47:33;;;;;;;4.57;2.10;;;11.90;99.90;;;12.85;85.93;98224.94;10358378;28;20226;-65
2023/10/15 10:52:38;;;;;;;4.45;2.10;;;12.40;99.90;;;12.85;77.59;98234.31;10359641;28;20234;-65
2023/10/15 10:57:43;;;;;;;2.63;1.92;;;12.10;99.90;;;12.51;68.79;98232.47;10362584;28;20253;-66
2023/10/15 11:02:47;;;;;;;3.55;1.85;;;11.90;99.90;;;12.22;70.96;98233.41;10360309;28;20234;-65
2023/10/15 11:07:52;;;;;;;5.55;2.10;;;11.60;99.90;;;12.66;75.46;98234.13;10358817;28;20234;-66
2023/10/15 11:12:56;;;;;;;3.38;1.77;;;12.10;99.90;;;12.90;75.53;98229.44;10359004;28;20234;-66
2023/10/15 11:17:59;;;;;;;3.17;2.13;;;12.20;99.90;;;13.05;71.78;98214.88;10358691;28;20245;-63
2023/10/15 11:23:06;;;;;;;3.42;1.80;;;12.40;99.90;;;12.87;64.34;98227.56;10362009;28;20237;-65
2023/10/15 11:28:10;;;;;;;1.50;1.40;;;12.10;99.90;;;12.79;64.64;98226.28;10364168;28;20597;-66
2023/10/15 11:33:17;;;;;;;3.83;1.60;;;11.80;99.90;;;12.74;64.67;98223.47;10360920;28;20322;-67
2023/10/15 11:38:22;;;;;;;2.03;1.50;;;11.90;99.90;;;12.78;65.06;98229.66;10355260;28;20228;-66
2023/10/15 11:43:25;;;;;;;3.33;1.90;;;12.00;99.90;;;12.79;64.25;98233.97;10359259;28;20234;-64
2023/10/15 11:48:28;;;;;;;2.85;1.80;;;12.00;99.90;;;12.89;66.10;98240.50;10359026;28;20690;-65
2023/10/15 11:53:33;;;;;;;3.92;2.17;;;12.20;99.90;;;13.07;67.92;98239.78;10354913;28;20317;-66
2023/10/15 11:58:37;;;;;;;4.07;2.25;;;12.40;99.90;;;13.48;64.21;98269.38;10356404;28;20238;-64
2023/10/15 12:03:41;;;;;;;1.95;1.45;;;12.90;99.90;;;12.11;72.97;98299.41;10357118;28;20317;-66
2023/10/15 12:08:46;;;;;;;2.42;1.60;;;11.50;99.90;;;11.47;82.60;98282.75;10352738;28;20231;-65
2023/10/15 12:13:49;;;;;;;2.65;1.83;;;10.70;99.90;;;10.87;85.04;98278.22;10361331;28;21046;-67
2023/10/15 12:18:52;;;;;;;2.92;2.13;;;10.30;99.90;;;11.11;88.81;98269.50;10360066;28;20227;-63
2023/10/15 12:23:58;;;;;;;3.72;2.05;;;10.50;99.90;;;10.82;84.85;98250.69;10359559;28;20222;-65
2023/10/15 12:29:03;;;;;;;2.58;1.88;;;10.30;99.90;;;10.88;85.99;98251.88;10356241;28;20222;-64
2023/10/15 12:34:26;;;;;;;2.25;1.70;;;10.40;99.90;;;11.32;84.24;98257.13;10355414;28;20836;-64
2023/10/15 12:39:30;;;;;;;2.65;1.88;;;10.90;99.90;;;11.32;82.62;98246.03;10351060;28;20266;-64
2023/10/15 12:44:36;;;;;;;1.70;1.60;;;10.90;99.90;;;11.30;77.61;98252.72;10349613;28;20804;-64
2023/10/15 12:49:41;;;;;;;3.40;1.92;;;10.90;99.90;;;11.28;80.86;98256.06;10355995;28;20226;-65
2023/10/15 12:54:46;;;;;;;3.45;1.85;;;10.90;99.90;;;11.37;79.29;98257.41;10355907;28;20231;-65
2023/10/15 12:59:49;;;;;;;3.72;2.00;;;11.00;99.90;;;11.33;76.65;98263.13;10356977;28;20234;-66
2023/10/15 13:04:52;;;;;;;2.33;2.00;;;10.90;99.90;;;11.41;77.04;98265.34;10350237;28;20226;-64
2023/10/15 13:09:57;;;;;;;2.22;2.03;;;11.00;99.90;;;11.69;76.68;98255.09;10355453;28;20241;-65
2023/10/15 13:15:01;;;;;;;4.25;2.00;;;11.30;99.90;;;11.59;72.24;98255.34;10353931;28;20349;-66
2023/10/15 13:20:06;;;;;;;2.67;1.75;;;11.20;99.90;;;11.75;75.01;98263.94;10357507;28;20230;-67
2023/10/15 13:25:12;;;;;;;3.80;2.20;;;11.30;99.90;;;11.75;72.39;98269.06;10355066;28;20603;-68
2023/10/15 13:30:16;;;;;;;5.22;2.08;;;11.30;99.90;;;12.01;74.20;98283.41;10353862;28;20604;-66
2023/10/15 13:35:20;;;;;;;4.18;1.95;;;11.50;99.90;;;12.05;68.88;98278.56;10353441;28;20234;-64
2023/10/15 13:40:25;;;;;;;2.58;2.17;;;11.50;99.90;;;12.16;66.08;98285.19;10352845;28;20349;-66
2023/10/15 13:45:28;;;;;;;4.38;2.10;;;11.60;99.90;;;11.98;68.10;98293.50;10351334;28;20223;-65
2023/10/15 13:50:31;;;;;;;4.18;2.22;;;11.50;99.90;;;11.89;68.91;98293.84;10355811;28;20445;-64
2023/10/15 13:55:36;;;;;;;3.38;2.03;;;11.40;99.90;;;11.81;66.50;98301.03;10351557;28;20722;-66
2023/10/15 14:00:40;;;;;;;2.67;1.92;;;11.40;99.90;;;11.90;68.05;98291.38;10350637;28;20300;-64
2023/10/15 14:05:43;;;;;;;2.15;1.50;;;11.40;99.90;;;11.84;67.04;98305.44;10357174;28;20241;-66
2023/10/15 14:10:50;;;;;;;2.67;1.90;;;11.30;99.90;;;11.91;63.03;98302.50;10354171;28;20222;-65
2023/10/15 14:15:55;;;;;;;3.08;2.05;;;11.50;99.90;;;11.68;63.82;98301.09;10353528;28;20248;-65
2023/10/15 14:20:58;;;;;;;2.65;1.88;;;11.30;99.90;;;11.64;65.15;98307.69;10354262;28;20234;-64
2023/10/15 14:26:03;;;;;;;2.17;1.75;;;11.20;99.90;;;11.73;68.45;98307.34;10350915;28;20226;-65
2023/10/15 14:31:06;;;;;;;2.03;1.60;;;11.20;99.90;;;11.98;63.18;98319.97;10353899;28;20244;-66
2023/10/15 14:36:12;;;;;;;1.58;1.48;;;11.40;99.90;;;11.88;64.09;98328.81;10353596;28;20745;-65
2023/10/15 14:41:17;;;;;;;3.33;2.05;;;11.30;99.90;;;11.61;64.17;98330.56;10350993;28;20552;-65
2023/10/15 14:46:20;;;;;;;1.70;1.60;;;11.10;99.90;;;11.51;65.00;98333.38;10351272;28;20706;-65
2023/10/15 14:51:23;;;;;;;2.58;1.90;;;10.90;99.90;;;11.39;66.69;98336.06;10356742;28;20226;-65
2023/10/15 14:56:28;;;;;;;2.17;1.98;;;10.80;99.90;;;11.38;67.61;98343.63;10351238;28;20219;-65
2023/10/15 15:01:32;;;;;;;2.50;1.90;;;10.70;99.90;;;11.21;70.80;98351.16;10358258;28;20230;-65
2023/10/15 15:06:35;;;;;;;3.70;2.00;;;10.60;99.90;;;11.19;70.72;98347.63;10358109;28;20223;-65
2023/10/15 15:11:40;;;;;;;1.95;1.77;;;10.50;99.90;;;11.09;72.93;98345.28;10362206;28;20226;-66
2023/10/15 15:16:43;;;;;;;2.80;2.15;;;10.50;99.90;;;11.09;72.84;98344.38;10364633;28;20242;-64
2023/10/15 15:21:47;;;;;;;2.90;2.00;;;10.50;99.90;;;11.01;71.72;98351.56;10366958;28;20309;-65
2023/10/15 15:26:52;;;;;;;4.30;3.50;;;10.40;99.90;;;10.89;69.45;98361.03;10362490;28;20239;-65
2023/10/15 15:31:56;;;;;;;2.00;1.75;;;10.20;99.90;;;10.93;70.89;98356.22;10366296;28;20237;-64
2023/10/15 15:36:59;;;;;;;2.00;1.80;;;10.20;99.90;;;10.80;69.66;98367.31;10363224;28;20223;-65
2023/10/15 15:42:05;;;;;;;2.75;2.05;;;10.20;99.90;;;10.80;71.38;98369.00;10363496;28;20226;-67
2023/10/15 15:47:10;;;;;;;2.42;1.95;;;10.20;99.90;;;10.70;70.64;98364.06;10366346;28;20250;-65
2023/10/15 15:52:14;;;;;;;2.40;2.15;;;10.10;99.90;;;10.80;69.24;98362.22;10355430;28;20250;-66
2023/10/15 15:57:18;;;;;;;3.08;2.13;;;10.20;99.90;;;10.79;68.29;98365.56;10363024;28;20226;-64
2023/10/15 16:02:22;;;;;;;2.47;2.10;;;10.20;99.90;;;10.80;70.14;98367.31;10364024;28;20230;-65
2023/10/15 16:07:25;;;;;;;2.70;2.15;;;10.20;99.90;;;10.67;69.42;98371.53;10362575;28;20227;-65
2023/10/15 16:12:30;;;;;;;2.45;2.25;;;10.00;99.90;;;10.51;69.28;98364.56;10360817;28;20230;-65
2023/10/15 16:17:36;;;;;;;3.25;2.40;;;9.80;99.90;;;10.45;71.07;98377.81;10358428;28;20231;-65
2023/10/15 16:22:40;;;;;;;3.80;2.63;;;9.80;99.90;;;10.28;73.05;98394.59;10353785;28;20582;-65
2023/10/15 16:27:44;;;;;;;2.47;2.20;;;9.60;99.90;;;10.16;74.56;98403.97;10351437;28;20230;-66
2023/10/15 16:32:47;;;;;;;2.85;2.60;;;9.40;99.90;;;10.02;74.19;98420.91;10345888;28;20233;-65
2023/10/15 16:37:53;;;;;;;2.40;2.22;;;9.30;99.90;;;9.83;74.86;98430.63;10351671;28;20675;-64
2023/10/15 16:42:57;;;;;;;2.88;2.40;;;9.10;99.90;;;9.72;75.94;98432.44;10344449;28;20227;-65
2023/10/15 16:48:01;;;;;;;3.05;2.75;;;8.90;99.90;;;9.51;75.91;98456.47;10346373;28;20350;-65
2023/10/15 16:53:07;;;;;;;3.70;3.40;;;8.70;99.90;;;9.38;77.07;98452.16;10342217;28;20281;-66
2023/10/15 16:58:14;;;;;;;4.07;3.63;;;8.60;99.90;;;9.29;77.56;98460.03;10344305;28;20219;-65
2023/10/15 17:03:17;;;;;;;6.43;5.80;;;8.50;99.90;;;9.02;78.67;98472.56;10338165;28;20282;-65
2023/10/15 17:08:20;;;;;;;37.00;30.63;;;8.30;99.90;;;8.82;83.62;98477.88;10338299;28;20219;-65
2023/10/15 17:13:25;;;;;;;10.70;8.83;;;8.10;99.90;;;8.88;85.07;98482.53;10345823;28;20607;-65
2023/10/15 17:18:28;;;;;;;7.90;7.10;;;8.10;99.90;;;8.67;85.46;98484.38;10348367;28;20231;-64
2023/10/15 17:23:31;;;;;;;10.13;8.63;;;7.90;99.90;;;8.42;87.62;98487.66;10344459;28;20245;-65
2023/10/15 17:28:35;;;;;;;8.53;7.10;;;7.60;99.90;;;8.34;88.76;98498.88;10357729;28;20230;-64
2023/10/15 17:33:39;;;;;;;7.60;5.97;;;7.50;99.90;;;8.23;90.76;98500.59;10358124;28;20230;-65
2023/10/15 17:38:42;;;;;;;8.20;7.50;;;7.50;99.90;;;8.15;91.06;98504.22;10353979;28;20215;-65
2023/10/15 17:43:47;;;;;;;8.40;7.60;;;7.40;99.90;;;8.06;91.38;98519.66;10353741;28;20229;-64
2023/10/15 17:48:51;;;;;;;8.40;7.57;;;7.20;99.90;;;8.05;91.67;98530.63;10356582;28;20241;-65
2023/10/15 17:53:56;;;;;;;6.73;6.07;;;7.20;99.90;;;7.85;92.48;98530.75;10349687;28;20327;-64
2023/10/15 17:59:00;;;;;;;7.27;6.67;;;7.10;99.90;;;7.57;92.76;98538.75;10349956;28;20707;-65
2023/10/15 18:04:03;;;;;;;6.50;6.10;;;6.80;99.90;;;7.45;94.38;98540.31;10342829;28;20318;-65
2023/10/15 18:09:09;;;;;;;5.53;5.07;;;6.70;99.90;;;7.30;92.47;98544.19;10342147;28;20250;-65
2023/10/15 18:14:14;;;;;;;3.20;2.90;;;6.60;99.90;;;7.22;94.28;98546.97;10339483;28;20330;-65
2023/10/15 18:19:17;;;;;;;2.73;2.50;;;6.40;99.90;;;6.98;93.11;98555.13;10341440;28;20227;-65
2023/10/15 18:24:21;;;;;;;2.70;2.57;;;6.20;99.90;;;6.95;93.61;98559.97;10339423;28;20268;-64
2023/10/15 18:29:26;;;;;;;3.63;3.33;;;6.20;99.90;;;6.94;94.02;98568.38;10350345;28;20354;-65
2023/10/15 18:34:29;;;;;;;3.07;2.87;;;6.20;99.90;;;6.69;94.83;98563.78;10341926;28;20222;-66
2023/10/15 18:39:33;;;;;;;3.73;3.43;;;6.00;99.90;;;6.74;95.41;98565.06;10347217;28;20281;-66
2023/10/15 18:44:38;;;;;;;5.17;4.77;;;6.00;99.90;;;6.69;95.47;98579.03;10350760;28;20765;-65
2023/10/15 18:49:41;;;;;;;5.50;4.90;;;6.00;99.90;;;6.56;95.61;98581.31;10358918;28;20721;-65
2023/10/15 18:54:44;;;;;;;5.40;4.90;;;6.00;99.90;;;6.55;96.10;98584.59;10348391;28;20230;-64
2023/10/15 18:59:49;;;;;;;4.40;4.10;;;5.80;99.90;;;6.42;96.83;98586.88;10354312;28;20233;-64
2023/10/15 19:04:52;;;;;;;4.70;4.30;;;5.70;99.90;;;6.44;97.33;98592.97;10353410;28;20313;-65
2023/10/15 19:09:55;;;;;;;5.93;4.77;;;5.80;99.90;;;6.19;97.70;98595.97;10352157;28;22558;-65
2023/10/15 19:15:00;;;;;;;5.53;4.93;;;5.60;99.90;;;6.23;98.56;98594.56;10352206;28;20321;-64
2023/10/15 19:20:10;;;;;;;5.27;4.87;;;5.50;99.90;;;6.20;98.91;98592.66;10350638;28;20741;-64
2023/10/15 19:25:14;;;;;;;4.87;4.50;;;5.50;99.90;;;6.19;98.85;98603.56;10352757;28;20229;-65
2023/10/15 19:30:19;;;;;;;5.57;5.10;;;5.50;99.90;;;6.09;98.71;98603.53;10352342;28;20229;-64
2023/10/15 19:35:22;;;;;;;6.37;5.83;;;5.40;99.90;;;6.09;99.05;98611.13;10347969;28;20246;-65
2023/10/15 19:40:25;;;;;;;7.30;6.60;;;5.40;99.90;;;6.03;98.69;98615.69;10351815;28;20226;-65
2023/10/15 19:45:30;;;;;;;7.97;7.23;;;5.30;99.90;;;5.91;98.84;98627.28;10353369;28;20726;-64
2023/10/15 19:50:33;;;;;;;5.03;4.60;;;5.10;99.90;;;5.88;98.28;98633.88;10352148;28;20685;-65
2023/10/15 19:55:36;;;;;;;4.13;3.73;;;5.10;99.90;;;5.78;99.17;98640.53;10349427;28;20241;-65
2023/10/15 20:00:43;;;;;;;4.80;4.50;;;5.00;99.90;;;5.62;98.01;98653.50;10355111;28;20226;-65
2023/10/15 20:05:47;;;;;;;4.67;4.37;;;4.90;99.90;;;5.66;97.71;98645.41;10350953;28;20240;-65
2023/10/15 20:10:50;;;;;;;5.03;4.63;;;4.90;99.90;;;5.50;98.70;98649.91;10348202;28;20218;-65
2023/10/15 20:15:55;;;;;;;5.37;4.87;;;4.80;99.90;;;5.46;98.90;98665.56;10350199;28;20226;-65
2023/10/15 20:20:58;;;;;;;12.40;11.07;;;4.80;99.90;;;5.42;98.75;98665.28;10349978;28;20373;-64
2023/10/15 20:26:04;;;;;;;5.23;4.83;;;4.70;99.90;;;5.30;98.43;98664.19;10341293;28;20237;-63
2023/10/15 20:31:09;;;;;;;3.93;3.60;;;4.60;99.90;;;5.24;98.13;98663.66;10350544;28;20253;-64
2023/10/15 20:36:12;;;;;;;3.90;3.60;;;4.60;99.90;;;5.17;98.81;98672.31;10346086;28;20219;-65
2023/10/15 20:41:15;;;;;;;4.97;4.37;;;4.50;99.90;;;5.07;98.02;98664.66;10342953;28;20227;-64
2023/10/15 20:46:20;;;;;;;4.80;4.40;;;4.40;99.90;;;5.00;97.76;98662.28;10355617;28;20231;-64
2023/10/15 20:51:23;;;;;;;5.30;4.67;;;4.30;99.90;;;5.01;99.08;98664.09;10351172;28;20265;-64
2023/10/15 20:56:27;;;;;;;4.10;3.80;;;4.40;99.90;;;5.17;98.17;98661.31;10355340;28;20304;-64
2023/10/15 21:01:31;;;;;;;5.13;4.63;;;4.40;99.90;;;4.93;98.80;98663.38;10360853;28;20238;-64
2023/10/15 21:06:34;;;;;;;4.20;3.87;;;4.30;99.90;;;4.87;98.92;98660.28;10358900;28;20228;-64
2023/10/15 21:11:37;;;;;;;6.20;5.47;;;4.20;99.90;;;4.88;99.54;98662.06;10349375;28;20238;-64
2023/10/15 21:16:42;;;;;;;5.30;4.80;;;4.20;99.90;;;4.81;99.53;98663.88;10343249;28;20219;-65
2023/10/15 21:21:45;;;;;;;5.40;4.93;;;4.10;99.90;;;4.79;99.53;98655.28;10360423;28;20266;-64